sensor_id;sensor_type;location;lat;lon;timestamp;temperature;humidity
5901;DHT22;2976;49.764;9.796;2023-06-10T00:02:08;14.60;99.90
5901;DHT22;2976;49.764;9.796;2023-06-10T00:04:34;14.60;99.90
5901;DHT22;2976;49.764;9.796;2023-06-10T00:07:03;14.70;99.90
5901;DHT22;2976;49.764;9.796;2023-06-10T00:09:29;14.60;99.90
5901;DHT22;2976;49.764;9.796;2023-06-10T00:11:54;14.60;99.90
5901;DHT22;2976;49.764;9.796;2023-06-10T00:14:20;14.60;99.90
5901;DHT22;2976;49.764;9.796;2023-06-10T00:16:45;14.60;99.90
5901;DHT22;2976;49.764;9.796;2023-06-10T00:19:11;14.50;99.90
5901;DHT22;2976;49.764;9.796;2023-06-10T00:21:39;14.50;99.90
5901;DHT22;2976;49.764;9.796;2023-06-10T00:24:10;14.40;99.90
5901;DHT22;2976;49.764;9.796;2023-06-10T00:26:40;14.30;99.90
5901;DHT22;2976;49.764;9.796;2023-06-10T00:29:07;14.20;99.90
5901;DHT22;2976;49.764;9.796;2023-06-10T00:31:34;14.20;99.90
5901;DHT22;2976;49.764;9.796;2023-06-10T00:34:00;14.10;99.90
5901;DHT22;2976;49.764;9.796;2023-06-10T00:36:26;14.10;99.90
5901;DHT22;2976;49.764;9.796;2023-06-10T00:38:52;14.10;99.90
5901;DHT22;2976;49.764;9.796;2023-06-10T00:41:17;14.10;99.90
5901;DHT22;2976;49.764;9.796;2023-06-10T00:43:43;14.00;99.90
5901;DHT22;2976;49.764;9.796;2023-06-10T00:46:10;14.00;99.90
5901;DHT22;2976;49.764;9.796;2023-06-10T00:48:37;13.90;99.90
5901;DHT22;2976;49.764;9.796;2023-06-10T00:51:05;13.80;99.90
5901;DHT22;2976;49.764;9.796;2023-06-10T00:53:31;13.70;99.90
5901;DHT22;2976;49.764;9.796;2023-06-10T00:55:57;13.70;99.90
5901;DHT22;2976;49.764;9.796;2023-06-10T00:58:24;13.70;99.90
5901;DHT22;2976;49.764;9.796;2023-06-10T01:00:51;13.60;99.90
5901;DHT22;2976;49.764;9.796;2023-06-10T01:03:17;13.60;99.90
5901;DHT22;2976;49.764;9.796;2023-06-10T01:05:43;13.50;99.90
5901;DHT22;2976;49.764;9.796;2023-06-10T01:08:33;13.40;99.90
5901;DHT22;2976;49.764;9.796;2023-06-10T01:11:01;13.40;99.90
5901;DHT22;2976;49.764;9.796;2023-06-10T01:13:30;13.40;99.90
5901;DHT22;2976;49.764;9.796;2023-06-10T01:15:58;13.40;99.90
5901;DHT22;2976;49.764;9.796;2023-06-10T01:18:30;13.40;99.90
5901;DHT22;2976;49.764;9.796;2023-06-10T01:20:56;13.30;99.90
5901;DHT22;2976;49.764;9.796;2023-06-10T01:23:22;13.30;99.90
5901;DHT22;2976;49.764;9.796;2023-06-10T01:26:02;13.30;99.90
5901;DHT22;2976;49.764;9.796;2023-06-10T01:31:43;13.30;99.90
5901;DHT22;2976;49.764;9.796;2023-06-10T01:34:14;13.30;99.90
5901;DHT22;2976;49.764;9.796;2023-06-10T01:36:44;13.30;99.90
5901;DHT22;2976;49.764;9.796;2023-06-10T01:39:11;13.40;99.90
5901;DHT22;2976;49.764;9.796;2023-06-10T01:41:38;13.40;99.90
5901;DHT22;2976;49.764;9.796;2023-06-10T01:44:05;13.50;99.90
5901;DHT22;2976;49.764;9.796;2023-06-10T01:46:30;13.60;99.90
5901;DHT22;2976;49.764;9.796;2023-06-10T01:48:56;13.60;99.90
5901;DHT22;2976;49.764;9.796;2023-06-10T01:51:21;13.50;99.90
5901;DHT22;2976;49.764;9.796;2023-06-10T01:53:47;13.40;99.90
5901;DHT22;2976;49.764;9.796;2023-06-10T01:56:13;13.30;99.90
5901;DHT22;2976;49.764;9.796;2023-06-10T01:58:45;13.20;99.90
5901;DHT22;2976;49.764;9.796;2023-06-10T02:01:11;13.00;99.90
5901;DHT22;2976;49.764;9.796;2023-06-10T02:03:36;12.90;99.90
5901;DHT22;2976;49.764;9.796;2023-06-10T02:06:02;12.80;99.90
5901;DHT22;2976;49.764;9.796;2023-06-10T02:08:27;12.70;99.90
5901;DHT22;2976;49.764;9.796;2023-06-10T02:10:53;12.60;99.90
5901;DHT22;2976;49.764;9.796;2023-06-10T02:13:19;12.50;99.90
5901;DHT22;2976;49.764;9.796;2023-06-10T02:15:44;12.50;99.90
5901;DHT22;2976;49.764;9.796;2023-06-10T02:18:10;12.60;99.90
5901;DHT22;2976;49.764;9.796;2023-06-10T02:20:37;12.60;99.90
5901;DHT22;2976;49.764;9.796;2023-06-10T02:23:03;12.60;99.90
5901;DHT22;2976;49.764;9.796;2023-06-10T02:25:29;12.60;99.90
5901;DHT22;2976;49.764;9.796;2023-06-10T02:27:54;12.50;99.90
5901;DHT22;2976;49.764;9.796;2023-06-10T02:30:20;12.50;99.90
5901;DHT22;2976;49.764;9.796;2023-06-10T02:32:46;12.50;99.90
5901;DHT22;2976;49.764;9.796;2023-06-10T02:35:14;12.40;99.90
5901;DHT22;2976;49.764;9.796;2023-06-10T02:37:39;12.40;99.90
5901;DHT22;2976;49.764;9.796;2023-06-10T02:40:06;12.30;99.90
5901;DHT22;2976;49.764;9.796;2023-06-10T02:42:31;12.30;99.90
5901;DHT22;2976;49.764;9.796;2023-06-10T02:44:57;12.30;99.90
5901;DHT22;2976;49.764;9.796;2023-06-10T02:47:22;12.40;99.90
5901;DHT22;2976;49.764;9.796;2023-06-10T02:49:48;12.40;99.90
5901;DHT22;2976;49.764;9.796;2023-06-10T02:52:14;12.40;99.90
5901;DHT22;2976;49.764;9.796;2023-06-10T02:54:39;12.40;99.90
5901;DHT22;2976;49.764;9.796;2023-06-10T02:57:05;12.40;99.90
5901;DHT22;2976;49.764;9.796;2023-06-10T02:59:31;12.30;99.90
5901;DHT22;2976;49.764;9.796;2023-06-10T03:01:57;12.30;99.90
5901;DHT22;2976;49.764;9.796;2023-06-10T03:04:23;12.40;99.90
5901;DHT22;2976;49.764;9.796;2023-06-10T03:06:50;12.40;99.90
5901;DHT22;2976;49.764;9.796;2023-06-10T03:09:16;12.50;99.90
5901;DHT22;2976;49.764;9.796;2023-06-10T03:11:41;12.40;99.90
5901;DHT22;2976;49.764;9.796;2023-06-10T03:14:07;12.40;99.90
5901;DHT22;2976;49.764;9.796;2023-06-10T03:16:33;12.40;99.90
5901;DHT22;2976;49.764;9.796;2023-06-10T03:18:58;12.30;99.90
5901;DHT22;2976;49.764;9.796;2023-06-10T03:21:24;12.30;99.90
5901;DHT22;2976;49.764;9.796;2023-06-10T03:23:50;12.30;99.90
5901;DHT22;2976;49.764;9.796;2023-06-10T03:26:15;12.30;99.90
5901;DHT22;2976;49.764;9.796;2023-06-10T03:28:42;12.30;99.90
5901;DHT22;2976;49.764;9.796;2023-06-10T03:31:07;12.20;99.90
5901;DHT22;2976;49.764;9.796;2023-06-10T03:33:33;12.10;99.90
5901;DHT22;2976;49.764;9.796;2023-06-10T03:35:59;12.20;99.90
5901;DHT22;2976;49.764;9.796;2023-06-10T03:38:24;12.10;99.90
5901;DHT22;2976;49.764;9.796;2023-06-10T03:40:50;12.10;99.90
5901;DHT22;2976;49.764;9.796;2023-06-10T03:43:15;12.00;99.90
5901;DHT22;2976;49.764;9.796;2023-06-10T03:45:41;12.10;99.90
5901;DHT22;2976;49.764;9.796;2023-06-10T03:48:06;12.00;99.90
5901;DHT22;2976;49.764;9.796;2023-06-10T03:50:35;12.10;99.90
5901;DHT22;2976;49.764;9.796;2023-06-10T03:53:01;12.20;99.90
5901;DHT22;2976;49.764;9.796;2023-06-10T03:55:27;12.20;99.90
5901;DHT22;2976;49.764;9.796;2023-06-10T03:57:53;12.20;99.90
5901;DHT22;2976;49.764;9.796;2023-06-10T04:00:18;12.30;99.90
5901;DHT22;2976;49.764;9.796;2023-06-10T04:02:46;12.40;99.90
5901;DHT22;2976;49.764;9.796;2023-06-10T04:05:15;12.50;99.90
5901;DHT22;2976;49.764;9.796;2023-06-10T04:07:41;12.60;99.90
5901;DHT22;2976;49.764;9.796;2023-06-10T04:10:11;12.70;99.90
5901;DHT22;2976;49.764;9.796;2023-06-10T04:12:37;12.70;99.90
5901;DHT22;2976;49.764;9.796;2023-06-10T04:15:04;12.80;99.90
5901;DHT22;2976;49.764;9.796;2023-06-10T04:17:29;12.90;99.90
5901;DHT22;2976;49.764;9.796;2023-06-10T04:19:55;13.40;99.90
5901;DHT22;2976;49.764;9.796;2023-06-10T04:22:21;14.20;99.90
5901;DHT22;2976;49.764;9.796;2023-06-10T04:24:48;14.90;99.90
5901;DHT22;2976;49.764;9.796;2023-06-10T04:27:13;15.60;99.90
5901;DHT22;2976;49.764;9.796;2023-06-10T04:29:39;16.70;99.90
5901;DHT22;2976;49.764;9.796;2023-06-10T04:32:05;17.80;99.90
5901;DHT22;2976;49.764;9.796;2023-06-10T04:34:33;18.70;99.90
5901;DHT22;2976;49.764;9.796;2023-06-10T04:36:58;19.50;56.20
5901;DHT22;2976;49.764;9.796;2023-06-10T04:39:24;19.90;16.40
5901;DHT22;2976;49.764;9.796;2023-06-10T04:41:50;20.20;1.00
5901;DHT22;2976;49.764;9.796;2023-06-10T04:44:15;20.80;1.00
5901;DHT22;2976;49.764;9.796;2023-06-10T04:46:41;21.70;1.00
5901;DHT22;2976;49.764;9.796;2023-06-10T04:49:06;22.20;99.90
5901;DHT22;2976;49.764;9.796;2023-06-10T04:51:32;22.70;99.90
5901;DHT22;2976;49.764;9.796;2023-06-10T04:53:58;23.10;66.30
5901;DHT22;2976;49.764;9.796;2023-06-10T04:56:23;23.60;1.00
5901;DHT22;2976;49.764;9.796;2023-06-10T04:58:49;23.40;1.00
5901;DHT22;2976;49.764;9.796;2023-06-10T05:01:15;23.00;82.00
5901;DHT22;2976;49.764;9.796;2023-06-10T05:03:41;23.20;99.90
5901;DHT22;2976;49.764;9.796;2023-06-10T05:06:06;23.70;99.90
5901;DHT22;2976;49.764;9.796;2023-06-10T05:08:33;23.90;99.90
5901;DHT22;2976;49.764;9.796;2023-06-10T05:10:58;24.40;99.90
5901;DHT22;2976;49.764;9.796;2023-06-10T05:13:24;24.70;99.90
5901;DHT22;2976;49.764;9.796;2023-06-10T05:15:49;23.90;13.60
5901;DHT22;2976;49.764;9.796;2023-06-10T05:18:15;23.40;99.90
5901;DHT22;2976;49.764;9.796;2023-06-10T05:20:41;22.90;99.90
5901;DHT22;2976;49.764;9.796;2023-06-10T05:23:06;22.70;99.90
5901;DHT22;2976;49.764;9.796;2023-06-10T05:25:32;23.30;1.00
5901;DHT22;2976;49.764;9.796;2023-06-10T05:27:58;23.60;99.90
5901;DHT22;2976;49.764;9.796;2023-06-10T05:30:24;22.90;1.00
5901;DHT22;2976;49.764;9.796;2023-06-10T05:32:50;22.20;99.90
5901;DHT22;2976;49.764;9.796;2023-06-10T05:35:16;22.30;1.00
5901;DHT22;2976;49.764;9.796;2023-06-10T05:37:42;23.20;1.00
5901;DHT22;2976;49.764;9.796;2023-06-10T05:40:09;23.80;1.00
5901;DHT22;2976;49.764;9.796;2023-06-10T05:42:34;24.30;1.00
5901;DHT22;2976;49.764;9.796;2023-06-10T05:45:00;23.40;99.90
5901;DHT22;2976;49.764;9.796;2023-06-10T05:47:25;23.00;99.90
5901;DHT22;2976;49.764;9.796;2023-06-10T05:49:51;22.60;99.90
5901;DHT22;2976;49.764;9.796;2023-06-10T05:52:17;22.60;99.90
5901;DHT22;2976;49.764;9.796;2023-06-10T05:54:43;22.30;1.00
5901;DHT22;2976;49.764;9.796;2023-06-10T05:57:09;22.30;35.00
5901;DHT22;2976;49.764;9.796;2023-06-10T05:59:35;22.20;1.00
5901;DHT22;2976;49.764;9.796;2023-06-10T06:02:01;22.80;99.90
5901;DHT22;2976;49.764;9.796;2023-06-10T06:04:26;23.40;1.00
5901;DHT22;2976;49.764;9.796;2023-06-10T06:06:52;24.70;99.90
5901;DHT22;2976;49.764;9.796;2023-06-10T06:09:17;25.90;99.90
5901;DHT22;2976;49.764;9.796;2023-06-10T06:11:43;26.20;99.90
5901;DHT22;2976;49.764;9.796;2023-06-10T06:14:09;26.50;99.90
5901;DHT22;2976;49.764;9.796;2023-06-10T06:16:34;26.00;99.90
5901;DHT22;2976;49.764;9.796;2023-06-10T06:19:00;25.90;99.90
5901;DHT22;2976;49.764;9.796;2023-06-10T06:21:26;26.00;99.90
5901;DHT22;2976;49.764;9.796;2023-06-10T06:23:51;24.90;1.00
5901;DHT22;2976;49.764;9.796;2023-06-10T06:26:17;24.40;1.00
5901;DHT22;2976;49.764;9.796;2023-06-10T06:28:42;25.30;99.90
5901;DHT22;2976;49.764;9.796;2023-06-10T06:31:08;25.70;99.90
5901;DHT22;2976;49.764;9.796;2023-06-10T06:33:33;25.30;99.90
5901;DHT22;2976;49.764;9.796;2023-06-10T06:35:59;24.70;99.90
5901;DHT22;2976;49.764;9.796;2023-06-10T06:38:27;24.70;99.90
5901;DHT22;2976;49.764;9.796;2023-06-10T06:40:53;24.90;99.90
5901;DHT22;2976;49.764;9.796;2023-06-10T06:43:19;24.70;99.90
5901;DHT22;2976;49.764;9.796;2023-06-10T06:45:45;25.10;99.90
5901;DHT22;2976;49.764;9.796;2023-06-10T06:48:11;25.30;99.90
5901;DHT22;2976;49.764;9.796;2023-06-10T06:50:37;25.60;99.90
5901;DHT22;2976;49.764;9.796;2023-06-10T06:53:04;26.20;99.90
5901;DHT22;2976;49.764;9.796;2023-06-10T06:55:29;25.70;99.90
5901;DHT22;2976;49.764;9.796;2023-06-10T06:57:55;25.60;99.90
5901;DHT22;2976;49.764;9.796;2023-06-10T07:00:21;25.70;99.90
5901;DHT22;2976;49.764;9.796;2023-06-10T07:02:47;25.40;99.90
5901;DHT22;2976;49.764;9.796;2023-06-10T07:05:12;25.00;99.90
5901;DHT22;2976;49.764;9.796;2023-06-10T07:07:38;24.90;99.90
5901;DHT22;2976;49.764;9.796;2023-06-10T07:10:04;25.30;99.90
5901;DHT22;2976;49.764;9.796;2023-06-10T07:12:29;26.00;99.90
5901;DHT22;2976;49.764;9.796;2023-06-10T07:14:55;25.60;99.90
5901;DHT22;2976;49.764;9.796;2023-06-10T07:17:21;24.80;99.90
5901;DHT22;2976;49.764;9.796;2023-06-10T07:19:46;24.80;99.90
5901;DHT22;2976;49.764;9.796;2023-06-10T07:22:12;24.60;99.90
5901;DHT22;2976;49.764;9.796;2023-06-10T07:24:37;24.60;99.90
5901;DHT22;2976;49.764;9.796;2023-06-10T07:27:03;24.80;99.90
5901;DHT22;2976;49.764;9.796;2023-06-10T07:29:29;25.00;99.90
5901;DHT22;2976;49.764;9.796;2023-06-10T07:31:54;25.00;99.90
5901;DHT22;2976;49.764;9.796;2023-06-10T07:34:20;25.40;99.90
5901;DHT22;2976;49.764;9.796;2023-06-10T07:36:46;25.30;99.90
5901;DHT22;2976;49.764;9.796;2023-06-10T07:39:11;25.60;99.90
5901;DHT22;2976;49.764;9.796;2023-06-10T07:41:37;26.00;99.90
5901;DHT22;2976;49.764;9.796;2023-06-10T07:44:02;26.00;99.90
5901;DHT22;2976;49.764;9.796;2023-06-10T07:46:28;26.60;99.90
5901;DHT22;2976;49.764;9.796;2023-06-10T07:48:54;26.30;99.90
5901;DHT22;2976;49.764;9.796;2023-06-10T07:51:21;26.30;99.90
5901;DHT22;2976;49.764;9.796;2023-06-10T07:53:46;26.10;99.90
5901;DHT22;2976;49.764;9.796;2023-06-10T07:56:12;26.30;99.90
5901;DHT22;2976;49.764;9.796;2023-06-10T07:58:37;26.30;99.90
5901;DHT22;2976;49.764;9.796;2023-06-10T08:01:03;26.90;99.90
5901;DHT22;2976;49.764;9.796;2023-06-10T08:03:29;27.00;99.90
5901;DHT22;2976;49.764;9.796;2023-06-10T08:05:55;27.00;99.40
5901;DHT22;2976;49.764;9.796;2023-06-10T08:08:20;27.30;99.90
5901;DHT22;2976;49.764;9.796;2023-06-10T08:10:46;27.20;90.60
5901;DHT22;2976;49.764;9.796;2023-06-10T08:13:11;26.50;99.90
5901;DHT22;2976;49.764;9.796;2023-06-10T08:15:37;26.50;99.90
5901;DHT22;2976;49.764;9.796;2023-06-10T08:18:03;26.70;99.90
5901;DHT22;2976;49.764;9.796;2023-06-10T08:20:28;26.70;99.90
5901;DHT22;2976;49.764;9.796;2023-06-10T08:22:54;26.80;99.90
5901;DHT22;2976;49.764;9.796;2023-06-10T08:25:20;26.90;91.20
5901;DHT22;2976;49.764;9.796;2023-06-10T08:27:47;27.00;78.60
5901;DHT22;2976;49.764;9.796;2023-06-10T08:30:13;27.00;43.40
5901;DHT22;2976;49.764;9.796;2023-06-10T08:32:39;26.80;79.70
5901;DHT22;2976;49.764;9.796;2023-06-10T08:35:04;27.10;99.30
5901;DHT22;2976;49.764;9.796;2023-06-10T08:37:30;27.10;86.70
5901;DHT22;2976;49.764;9.796;2023-06-10T08:39:56;26.70;84.80
5901;DHT22;2976;49.764;9.796;2023-06-10T08:42:31;26.90;62.30
5901;DHT22;2976;49.764;9.796;2023-06-10T08:45:01;26.80;97.80
5901;DHT22;2976;49.764;9.796;2023-06-10T08:47:29;26.70;93.20
5901;DHT22;2976;49.764;9.796;2023-06-10T08:49:57;27.00;62.40
5901;DHT22;2976;49.764;9.796;2023-06-10T08:52:34;27.20;67.90
5901;DHT22;2976;49.764;9.796;2023-06-10T08:55:03;27.50;62.50
5901;DHT22;2976;49.764;9.796;2023-06-10T08:57:30;27.60;54.80
5901;DHT22;2976;49.764;9.796;2023-06-10T08:59:58;27.40;58.10
5901;DHT22;2976;49.764;9.796;2023-06-10T09:02:27;27.40;48.40
5901;DHT22;2976;49.764;9.796;2023-06-10T09:04:53;27.10;63.10
5901;DHT22;2976;49.764;9.796;2023-06-10T09:07:21;27.10;52.30
5901;DHT22;2976;49.764;9.796;2023-06-10T09:09:49;27.30;62.00
5901;DHT22;2976;49.764;9.796;2023-06-10T09:12:15;27.40;62.40
5901;DHT22;2976;49.764;9.796;2023-06-10T09:14:44;27.40;63.40
5901;DHT22;2976;49.764;9.796;2023-06-10T09:17:10;27.40;58.40
5901;DHT22;2976;49.764;9.796;2023-06-10T09:19:38;27.10;83.60
5901;DHT22;2976;49.764;9.796;2023-06-10T09:22:04;27.50;62.40
5901;DHT22;2976;49.764;9.796;2023-06-10T09:24:30;27.30;51.60
5901;DHT22;2976;49.764;9.796;2023-06-10T09:27:06;26.90;93.50
5901;DHT22;2976;49.764;9.796;2023-06-10T09:29:51;27.40;98.00
5901;DHT22;2976;49.764;9.796;2023-06-10T09:32:18;27.80;63.60
5901;DHT22;2976;49.764;9.796;2023-06-10T09:34:44;28.00;45.80
5901;DHT22;2976;49.764;9.796;2023-06-10T09:37:10;28.10;62.90
5901;DHT22;2976;49.764;9.796;2023-06-10T09:39:38;28.30;30.00
5901;DHT22;2976;49.764;9.796;2023-06-10T09:42:19;28.30;47.20
5901;DHT22;2976;49.764;9.796;2023-06-10T09:44:51;28.30;33.80
5901;DHT22;2976;49.764;9.796;2023-06-10T09:47:21;28.30;30.20
5901;DHT22;2976;49.764;9.796;2023-06-10T09:49:50;28.40;25.00
5901;DHT22;2976;49.764;9.796;2023-06-10T09:52:25;28.10;24.50
5901;DHT22;2976;49.764;9.796;2023-06-10T09:54:58;27.70;36.00
5901;DHT22;2976;49.764;9.796;2023-06-10T09:57:24;27.70;55.80
5901;DHT22;2976;49.764;9.796;2023-06-10T09:59:53;27.90;38.10
5901;DHT22;2976;49.764;9.796;2023-06-10T10:02:20;27.50;62.90
5901;DHT22;2976;49.764;9.796;2023-06-10T10:04:45;27.50;62.30
5901;DHT22;2976;49.764;9.796;2023-06-10T10:07:11;27.60;65.80
5901;DHT22;2976;49.764;9.796;2023-06-10T10:09:38;27.80;49.90
5901;DHT22;2976;49.764;9.796;2023-06-10T10:12:09;27.80;55.40
5901;DHT22;2976;49.764;9.796;2023-06-10T10:14:36;27.90;62.90
5901;DHT22;2976;49.764;9.796;2023-06-10T10:17:09;28.00;49.40
5901;DHT22;2976;49.764;9.796;2023-06-10T10:20:03;27.90;37.30
5901;DHT22;2976;49.764;9.796;2023-06-10T10:22:36;27.70;51.60
5901;DHT22;2976;49.764;9.796;2023-06-10T10:25:08;27.80;40.90
5901;DHT22;2976;49.764;9.796;2023-06-10T10:27:44;28.10;49.60
5901;DHT22;2976;49.764;9.796;2023-06-10T10:30:14;28.50;34.70
5901;DHT22;2976;49.764;9.796;2023-06-10T10:32:57;28.30;23.70
5901;DHT22;2976;49.764;9.796;2023-06-10T10:35:25;28.20;33.30
5901;DHT22;2976;49.764;9.796;2023-06-10T10:37:54;28.30;25.30
5901;DHT22;2976;49.764;9.796;2023-06-10T10:42:51;28.50;55.10
5901;DHT22;2976;49.764;9.796;2023-06-10T10:45:17;28.80;99.90
5901;DHT22;2976;49.764;9.796;2023-06-10T10:47:45;29.10;99.90
5901;DHT22;2976;49.764;9.796;2023-06-10T10:50:15;29.10;1.00
5901;DHT22;2976;49.764;9.796;2023-06-10T10:53:01;29.40;99.90
5901;DHT22;2976;49.764;9.796;2023-06-10T10:55:28;28.90;99.90
5901;DHT22;2976;49.764;9.796;2023-06-10T10:58:04;29.00;1.00
5901;DHT22;2976;49.764;9.796;2023-06-10T11:00:32;29.00;1.00
5901;DHT22;2976;49.764;9.796;2023-06-10T11:03:04;28.90;99.90
5901;DHT22;2976;49.764;9.796;2023-06-10T11:05:45;28.90;1.00
5901;DHT22;2976;49.764;9.796;2023-06-10T11:08:59;29.00;99.90
5901;DHT22;2976;49.764;9.796;2023-06-10T11:11:00;28.70;99.90
5901;DHT22;2976;49.764;9.796;2023-06-10T11:13:27;28.90;1.00
5901;DHT22;2976;49.764;9.796;2023-06-10T11:15:57;29.10;28.10
5901;DHT22;2976;49.764;9.796;2023-06-10T11:18:24;29.30;1.00
5901;DHT22;2976;49.764;9.796;2023-06-10T11:31:27;28.60;99.90
5901;DHT22;2976;49.764;9.796;2023-06-10T11:34:03;28.70;1.00
5901;DHT22;2976;49.764;9.796;2023-06-10T11:36:30;28.30;99.90
5901;DHT22;2976;49.764;9.796;2023-06-10T11:38:59;28.50;99.90
5901;DHT22;2976;49.764;9.796;2023-06-10T11:41:25;28.80;1.00
5901;DHT22;2976;49.764;9.796;2023-06-10T11:43:52;29.40;1.00
5901;DHT22;2976;49.764;9.796;2023-06-10T11:46:18;29.60;99.90
5901;DHT22;2976;49.764;9.796;2023-06-10T11:48:55;29.80;1.00
5901;DHT22;2976;49.764;9.796;2023-06-10T11:51:21;29.50;1.00
5901;DHT22;2976;49.764;9.796;2023-06-10T11:53:50;29.00;1.00
5901;DHT22;2976;49.764;9.796;2023-06-10T11:56:22;28.70;1.00
5901;DHT22;2976;49.764;9.796;2023-06-10T11:58:56;29.00;99.90
5901;DHT22;2976;49.764;9.796;2023-06-10T12:01:25;29.00;1.00
5901;DHT22;2976;49.764;9.796;2023-06-10T12:04:04;29.40;99.90
5901;DHT22;2976;49.764;9.796;2023-06-10T12:06:45;29.20;1.00
5901;DHT22;2976;49.764;9.796;2023-06-10T12:09:29;29.60;1.00
5901;DHT22;2976;49.764;9.796;2023-06-10T12:12:00;29.70;1.00
5901;DHT22;2976;49.764;9.796;2023-06-10T12:17:21;29.80;1.00
5901;DHT22;2976;49.764;9.796;2023-06-10T12:19:47;29.30;1.00
5901;DHT22;2976;49.764;9.796;2023-06-10T12:22:14;29.10;1.00
5901;DHT22;2976;49.764;9.796;2023-06-10T12:24:57;29.60;1.00
5901;DHT22;2976;49.764;9.796;2023-06-10T12:27:25;29.50;51.60
5901;DHT22;2976;49.764;9.796;2023-06-10T12:29:51;29.40;52.30
5901;DHT22;2976;49.764;9.796;2023-06-10T12:32:20;29.50;52.70
5901;DHT22;2976;49.764;9.796;2023-06-10T12:35:05;29.30;53.70
5901;DHT22;2976;49.764;9.796;2023-06-10T12:37:31;28.90;53.50
5901;DHT22;2976;49.764;9.796;2023-06-10T12:40:03;28.70;54.30
5901;DHT22;2976;49.764;9.796;2023-06-10T12:42:30;28.70;54.40
5901;DHT22;2976;49.764;9.796;2023-06-10T12:44:56;29.00;53.80
5901;DHT22;2976;49.764;9.796;2023-06-10T12:47:33;29.60;53.30
5901;DHT22;2976;49.764;9.796;2023-06-10T12:50:01;29.40;52.90
5901;DHT22;2976;49.764;9.796;2023-06-10T12:52:27;29.40;51.90
5901;DHT22;2976;49.764;9.796;2023-06-10T12:54:53;29.20;53.20
5901;DHT22;2976;49.764;9.796;2023-06-10T12:57:23;29.40;53.40
5901;DHT22;2976;49.764;9.796;2023-06-10T12:59:48;29.30;53.30
5901;DHT22;2976;49.764;9.796;2023-06-10T13:02:20;29.60;52.50
5901;DHT22;2976;49.764;9.796;2023-06-10T13:04:49;29.80;52.20
5901;DHT22;2976;49.764;9.796;2023-06-10T13:07:15;30.00;52.20
5901;DHT22;2976;49.764;9.796;2023-06-10T13:09:40;29.80;51.20
5901;DHT22;2976;49.764;9.796;2023-06-10T13:12:06;29.70;52.00
5901;DHT22;2976;49.764;9.796;2023-06-10T13:14:33;29.50;52.30
5901;DHT22;2976;49.764;9.796;2023-06-10T13:16:59;29.50;51.80
5901;DHT22;2976;49.764;9.796;2023-06-10T13:19:24;29.50;51.70
5901;DHT22;2976;49.764;9.796;2023-06-10T13:21:51;29.40;50.70
5901;DHT22;2976;49.764;9.796;2023-06-10T13:24:17;29.40;52.50
5901;DHT22;2976;49.764;9.796;2023-06-10T13:26:42;29.40;52.60
5901;DHT22;2976;49.764;9.796;2023-06-10T13:29:08;29.20;52.20
5901;DHT22;2976;49.764;9.796;2023-06-10T13:31:39;29.00;52.90
5901;DHT22;2976;49.764;9.796;2023-06-10T13:34:05;28.60;54.70
5901;DHT22;2976;49.764;9.796;2023-06-10T13:36:31;28.70;55.00
5901;DHT22;2976;49.764;9.796;2023-06-10T13:38:57;28.90;54.30
5901;DHT22;2976;49.764;9.796;2023-06-10T13:41:22;29.10;53.50
5901;DHT22;2976;49.764;9.796;2023-06-10T13:43:48;29.30;53.00
5901;DHT22;2976;49.764;9.796;2023-06-10T13:46:13;29.40;53.20
5901;DHT22;2976;49.764;9.796;2023-06-10T13:48:39;29.40;52.90
5901;DHT22;2976;49.764;9.796;2023-06-10T13:51:05;29.20;53.80
5901;DHT22;2976;49.764;9.796;2023-06-10T13:53:32;29.10;54.20
5901;DHT22;2976;49.764;9.796;2023-06-10T13:55:57;29.40;53.60
5901;DHT22;2976;49.764;9.796;2023-06-10T13:58:23;29.40;52.60
5901;DHT22;2976;49.764;9.796;2023-06-10T14:00:49;29.50;54.10
5901;DHT22;2976;49.764;9.796;2023-06-10T14:03:14;29.60;54.30
5901;DHT22;2976;49.764;9.796;2023-06-10T14:05:40;29.80;52.50
5901;DHT22;2976;49.764;9.796;2023-06-10T14:08:05;29.80;52.30
5901;DHT22;2976;49.764;9.796;2023-06-10T14:10:31;29.50;52.20
5901;DHT22;2976;49.764;9.796;2023-06-10T14:12:57;29.40;53.80
5901;DHT22;2976;49.764;9.796;2023-06-10T14:15:22;29.50;53.10
5901;DHT22;2976;49.764;9.796;2023-06-10T14:17:48;29.70;53.00
5901;DHT22;2976;49.764;9.796;2023-06-10T14:20:13;30.00;52.90
5901;DHT22;2976;49.764;9.796;2023-06-10T14:22:39;30.20;52.20
5901;DHT22;2976;49.764;9.796;2023-06-10T14:25:05;30.00;52.30
5901;DHT22;2976;49.764;9.796;2023-06-10T14:27:31;29.80;51.90
5901;DHT22;2976;49.764;9.796;2023-06-10T14:29:57;30.10;52.30
5901;DHT22;2976;49.764;9.796;2023-06-10T14:32:22;30.20;52.60
5901;DHT22;2976;49.764;9.796;2023-06-10T14:34:48;30.10;52.70
5901;DHT22;2976;49.764;9.796;2023-06-10T14:37:13;29.90;53.70
5901;DHT22;2976;49.764;9.796;2023-06-10T14:39:39;29.90;53.40
5901;DHT22;2976;49.764;9.796;2023-06-10T14:42:05;29.80;52.70
5901;DHT22;2976;49.764;9.796;2023-06-10T14:44:30;29.60;53.30
5901;DHT22;2976;49.764;9.796;2023-06-10T14:46:56;29.30;51.70
5901;DHT22;2976;49.764;9.796;2023-06-10T14:49:22;29.40;53.20
5901;DHT22;2976;49.764;9.796;2023-06-10T14:51:47;29.20;53.90
5901;DHT22;2976;49.764;9.796;2023-06-10T14:54:15;29.30;52.70
5901;DHT22;2976;49.764;9.796;2023-06-10T14:56:41;29.20;53.10
5901;DHT22;2976;49.764;9.796;2023-06-10T14:59:06;29.10;52.60
5901;DHT22;2976;49.764;9.796;2023-06-10T15:01:32;29.10;54.30
5901;DHT22;2976;49.764;9.796;2023-06-10T15:03:57;29.10;52.90
5901;DHT22;2976;49.764;9.796;2023-06-10T15:06:23;29.40;53.20
5901;DHT22;2976;49.764;9.796;2023-06-10T15:08:48;29.70;52.70
5901;DHT22;2976;49.764;9.796;2023-06-10T15:11:15;30.10;52.30
5901;DHT22;2976;49.764;9.796;2023-06-10T15:13:40;30.20;51.20
5901;DHT22;2976;49.764;9.796;2023-06-10T15:16:06;30.40;50.90
5901;DHT22;2976;49.764;9.796;2023-06-10T15:18:32;30.50;50.30
5901;DHT22;2976;49.764;9.796;2023-06-10T15:20:57;30.10;51.40
5901;DHT22;2976;49.764;9.796;2023-06-10T15:23:23;30.40;51.30
5901;DHT22;2976;49.764;9.796;2023-06-10T15:25:48;30.60;51.30
5901;DHT22;2976;49.764;9.796;2023-06-10T15:28:14;30.40;51.10
5901;DHT22;2976;49.764;9.796;2023-06-10T15:30:40;29.90;53.60
5901;DHT22;2976;49.764;9.796;2023-06-10T15:33:05;29.60;54.60
5901;DHT22;2976;49.764;9.796;2023-06-10T15:35:32;29.00;55.20
5901;DHT22;2976;49.764;9.796;2023-06-10T15:37:58;28.30;57.50
5901;DHT22;2976;49.764;9.796;2023-06-10T15:40:23;28.00;99.90
5901;DHT22;2976;49.764;9.796;2023-06-10T15:42:49;27.70;99.90
5901;DHT22;2976;49.764;9.796;2023-06-10T15:45:14;27.30;99.90
5901;DHT22;2976;49.764;9.796;2023-06-10T15:47:40;27.00;99.90
5901;DHT22;2976;49.764;9.796;2023-06-10T15:50:09;26.80;99.90
5901;DHT22;2976;49.764;9.796;2023-06-10T15:52:35;26.50;99.90
5901;DHT22;2976;49.764;9.796;2023-06-10T15:55:01;26.20;99.90
5901;DHT22;2976;49.764;9.796;2023-06-10T15:57:27;26.10;99.90
5901;DHT22;2976;49.764;9.796;2023-06-10T15:59:53;26.00;99.90
5901;DHT22;2976;49.764;9.796;2023-06-10T16:02:18;25.70;99.90
5901;DHT22;2976;49.764;9.796;2023-06-10T16:04:44;25.50;99.90
5901;DHT22;2976;49.764;9.796;2023-06-10T16:07:09;25.30;99.90
5901;DHT22;2976;49.764;9.796;2023-06-10T16:09:35;25.30;99.90
5901;DHT22;2976;49.764;9.796;2023-06-10T16:12:01;25.20;99.90
5901;DHT22;2976;49.764;9.796;2023-06-10T16:14:26;25.20;99.90
5901;DHT22;2976;49.764;9.796;2023-06-10T16:16:52;25.10;99.90
5901;DHT22;2976;49.764;9.796;2023-06-10T16:19:17;25.10;99.90
5901;DHT22;2976;49.764;9.796;2023-06-10T16:21:43;25.20;1.00